Terminal Aerodrome Forecast
Issued by NWS Wilmington, NC

Home | Current Version | Previous Version | Text Only | Print | Product List | Glossary On
Versions: 1 2 3 4 5 6 7 8 9 10 11 12 13 14 15 16 17 18 19 20 21
000
FTUS42 KILM 021700
TAFFLO
TAF
KFLO 021720Z 0218/0318 22004KT P6SM FEW045
     FM021900 15006KT P6SM FEW045
     FM030800 00000KT 4SM BR SCT250
      TEMPO 0309/0312 1SM BR
     FM031300 23007KT P6SM SCT020 BKN120=

USA.gov is the U.S. government's official web portal to all federal, state and local government web resources and services.